Time,TemperatureF,DewpointF,PressureIn,WindDirection,WindDirectionDegrees,WindSpeedMPH,WindSpeedGustMPH,Humidity,HourlyPrecipIn,Conditions,Clouds,dailyrainin,SoftwareType,DateUTC
2013-08-11 00:01:00,62.4,58.1,29.93,North,1,0.0,2.0,86,0.00,,,0.00,meteohub,2013-08-11 04:01:00,
2013-08-11 00:02:00,62.4,58.1,29.93,North,1,0.0,2.0,86,0.00,,,0.00,meteohub,2013-08-11 04:02:00,
2013-08-11 00:03:00,62.4,58.1,29.93,North,1,2.0,2.0,86,0.00,,,0.00,meteohub,2013-08-11 04:03:00,
2013-08-11 00:04:00,62.2,57.9,29.93,North,1,0.0,2.0,86,0.00,,,0.00,meteohub,2013-08-11 04:04:00,
2013-08-11 00:09:00,62.1,57.6,29.93,North,1,0.0,2.0,85,0.00,,,0.00,meteohub,2013-08-11 04:09:00,
2013-08-11 00:14:00,61.9,57.4,29.93,North,1,0.0,2.0,85,0.00,,,0.00,meteohub,2013-08-11 04:14:00,
2013-08-11 00:19:00,61.9,57.4,29.93,North,1,0.0,2.0,85,0.00,,,0.00,meteohub,2013-08-11 04:19:00,
2013-08-11 00:24:00,61.7,57.2,29.93,North,1,0.0,0.0,85,0.00,,,0.00,meteohub,2013-08-11 04:24:00,
2013-08-11 00:30:00,61.7,57.2,29.93,North,1,0.0,0.0,85,0.00,,,0.00,meteohub,2013-08-11 04:30:00,
2013-08-11 00:35:00,61.7,57.2,29.93,North,1,0.0,0.0,85,0.00,,,0.00,meteohub,2013-08-11 04:35:00,
2013-08-11 00:40:00,61.5,57.0,29.93,North,1,0.0,0.0,85,0.00,,,0.00,meteohub,2013-08-11 04:40:00,
2013-08-11 00:45:00,61.5,57.0,29.93,North,1,0.0,0.0,85,0.00,,,0.00,meteohub,2013-08-11 04:45:00,
2013-08-11 00:50:00,61.3,56.8,29.93,North,1,0.0,0.0,85,0.00,,,0.00,meteohub,2013-08-11 04:50:00,
2013-08-11 00:55:00,61.3,57.2,29.93,North,1,0.0,0.0,86,0.00,,,0.00,meteohub,2013-08-11 04:55:00,
2013-08-11 01:02:00,61.0,56.8,29.93,North,1,0.0,0.0,86,0.00,,,0.00,meteohub,2013-08-11 05:02:00,
2013-08-11 01:08:00,61.0,57.0,29.93,North,1,0.0,0.0,87,0.00,,,0.00,meteohub,2013-08-11 05:08:00,
2013-08-11 01:13:00,60.8,56.8,29.93,North,1,0.0,0.0,87,0.00,,,0.00,meteohub,2013-08-11 05:13:00,
2013-08-11 01:18:00,60.8,56.8,29.93,North,1,0.0,0.0,87,0.00,,,0.00,meteohub,2013-08-11 05:18:00,
2013-08-11 01:24:00,60.8,56.8,29.93,North,1,0.0,0.0,87,0.00,,,0.00,meteohub,2013-08-11 05:24:00,
2013-08-11 01:29:00,60.8,56.8,29.93,North,1,0.0,2.0,87,0.00,,,0.00,meteohub,2013-08-11 05:29:00,
2013-08-11 01:34:00,60.8,56.8,29.93,North,1,0.0,2.0,87,0.00,,,0.00,meteohub,2013-08-11 05:34:00,
2013-08-11 01:40:00,60.8,56.8,29.93,North,1,0.0,0.0,87,0.00,,,0.00,meteohub,2013-08-11 05:40:00,
2013-08-11 01:45:00,60.6,56.7,29.93,North,1,0.0,0.0,87,0.00,,,0.00,meteohub,2013-08-11 05:45:00,
2013-08-11 01:51:00,60.6,56.5,29.93,North,1,0.0,0.0,86,0.00,,,0.00,meteohub,2013-08-11 05:51:00,
2013-08-11 01:56:00,60.4,56.3,29.93,North,1,0.0,0.0,86,0.00,,,0.00,meteohub,2013-08-11 05:56:00,
2013-08-11 02:02:00,60.4,56.3,29.93,North,1,0.0,0.0,86,0.00,,,0.00,meteohub,2013-08-11 06:02:00,
2013-08-11 02:07:00,60.4,56.3,29.93,North,1,0.0,0.0,86,0.00,,,0.00,meteohub,2013-08-11 06:07:00,
2013-08-11 02:12:00,60.4,55.9,29.93,North,1,0.0,0.0,85,0.00,,,0.00,meteohub,2013-08-11 06:12:00,
2013-08-11 02:17:00,60.4,55.9,29.93,North,1,0.0,0.0,85,0.00,,,0.00,meteohub,2013-08-11 06:17:00,
2013-08-11 02:22:00,60.4,55.9,29.93,North,1,0.0,0.0,85,0.00,,,0.00,meteohub,2013-08-11 06:22:00,
2013-08-11 02:27:00,60.4,55.9,29.93,North,1,0.0,0.0,85,0.00,,,0.00,meteohub,2013-08-11 06:27:00,
2013-08-11 02:32:00,60.3,55.4,29.93,North,1,0.0,2.0,84,0.00,,,0.00,meteohub,2013-08-11 06:32:00,
2013-08-11 02:37:00,60.3,55.4,29.93,North,1,0.0,2.0,84,0.00,,,0.00,meteohub,2013-08-11 06:37:00,
2013-08-11 02:42:00,60.4,55.6,29.93,NE,34,0.0,4.0,84,0.00,,,0.00,meteohub,2013-08-11 06:42:00,
2013-08-11 02:48:00,60.4,55.2,29.93,East,97,2.0,4.0,83,0.00,,,0.00,meteohub,2013-08-11 06:48:00,
2013-08-11 02:53:00,60.4,55.2,29.93,ESE,105,0.0,4.0,83,0.00,,,0.00,meteohub,2013-08-11 06:53:00,
2013-08-11 02:58:00,60.3,55.0,29.93,ESE,105,0.0,4.0,83,0.00,,,0.00,meteohub,2013-08-11 06:58:00,
2013-08-11 03:03:00,60.1,54.5,29.93,ESE,105,0.0,4.0,82,0.00,,,0.00,meteohub,2013-08-11 07:03:00,
2013-08-11 03:09:00,59.9,54.3,29.93,ESE,105,0.0,0.0,82,0.00,,,0.00,meteohub,2013-08-11 07:09:00,
2013-08-11 03:14:00,59.5,54.0,29.93,ESE,105,0.0,0.0,82,0.00,,,0.00,meteohub,2013-08-11 07:14:00,
2013-08-11 03:19:00,59.5,54.3,29.93,ESE,105,0.0,0.0,83,0.00,,,0.00,meteohub,2013-08-11 07:19:00,
2013-08-11 03:25:00,59.4,54.1,29.93,ESE,105,0.0,0.0,83,0.00,,,0.00,meteohub,2013-08-11 07:25:00,
2013-08-11 03:30:00,59.2,54.0,29.96,ESE,105,0.0,0.0,83,0.00,,,0.00,meteohub,2013-08-11 07:30:00,
2013-08-11 03:36:00,58.8,53.6,29.96,ESE,105,0.0,0.0,83,0.00,,,0.00,meteohub,2013-08-11 07:36:00,
2013-08-11 03:41:00,58.6,53.8,29.96,ESE,105,0.0,0.0,84,0.00,,,0.00,meteohub,2013-08-11 07:41:00,
2013-08-11 03:46:00,58.5,53.6,29.96,ESE,105,0.0,0.0,84,0.00,,,0.00,meteohub,2013-08-11 07:46:00,
2013-08-11 03:51:00,58.3,53.4,29.96,ESE,105,0.0,0.0,84,0.00,,,0.00,meteohub,2013-08-11 07:51:00,
2013-08-11 03:57:00,58.1,53.2,29.96,ESE,105,0.0,0.0,84,0.00,,,0.00,meteohub,2013-08-11 07:57:00,
2013-08-11 04:02:00,58.1,53.2,29.93,ESE,105,0.0,0.0,84,0.00,,,0.00,meteohub,2013-08-11 08:02:00,
2013-08-11 04:07:00,57.9,53.4,29.93,ESE,105,0.0,0.0,85,0.00,,,0.00,meteohub,2013-08-11 08:07:00,
2013-08-11 04:12:00,57.9,53.4,29.93,ESE,105,0.0,0.0,85,0.00,,,0.00,meteohub,2013-08-11 08:12:00,
2013-08-11 04:17:00,57.9,53.8,29.93,ESE,105,0.0,0.0,86,0.00,,,0.00,meteohub,2013-08-11 08:17:00,
2013-08-11 04:22:00,57.9,53.8,29.93,ESE,105,0.0,0.0,86,0.00,,,0.00,meteohub,2013-08-11 08:22:00,
2013-08-11 04:28:00,57.7,53.6,29.93,ESE,105,0.0,0.0,86,0.00,,,0.00,meteohub,2013-08-11 08:28:00,
2013-08-11 04:33:00,57.6,53.8,29.96,ESE,105,0.0,0.0,87,0.00,,,0.00,meteohub,2013-08-11 08:33:00,
2013-08-11 04:39:00,57.4,53.6,29.96,ESE,105,0.0,0.0,87,0.00,,,0.00,meteohub,2013-08-11 08:39:00,
2013-08-11 04:44:00,57.4,53.8,29.96,ESE,105,0.0,0.0,88,0.00,,,0.00,meteohub,2013-08-11 08:44:00,
2013-08-11 04:49:00,57.2,53.6,29.96,ESE,105,0.0,0.0,88,0.00,,,0.00,meteohub,2013-08-11 08:49:00,
2013-08-11 04:54:00,57.2,53.6,29.96,ESE,105,0.0,0.0,88,0.00,,,0.00,meteohub,2013-08-11 08:54:00,
2013-08-11 05:00:00,57.4,54.1,29.96,ESE,105,0.0,0.0,89,0.00,,,0.00,meteohub,2013-08-11 09:00:00,
2013-08-11 05:05:00,57.2,54.0,29.96,ESE,105,0.0,0.0,89,0.00,,,0.00,meteohub,2013-08-11 09:05:00,
2013-08-11 05:10:00,57.2,54.3,29.96,ESE,105,0.0,0.0,90,0.00,,,0.00,meteohub,2013-08-11 09:10:00,
2013-08-11 05:15:00,57.2,54.3,29.96,ESE,105,0.0,0.0,90,0.00,,,0.00,meteohub,2013-08-11 09:15:00,
2013-08-11 05:21:00,57.0,54.5,29.96,ESE,105,0.0,0.0,91,0.00,,,0.00,meteohub,2013-08-11 09:21:00,
2013-08-11 05:26:00,56.8,54.3,29.96,ESE,105,0.0,0.0,91,0.00,,,0.00,meteohub,2013-08-11 09:26:00,
2013-08-11 05:32:00,56.8,54.3,29.96,ESE,105,0.0,0.0,91,0.00,,,0.00,meteohub,2013-08-11 09:32:00,
2013-08-11 05:37:00,56.8,54.3,29.96,ESE,105,0.0,0.0,91,0.00,,,0.00,meteohub,2013-08-11 09:37:00,
2013-08-11 05:42:00,56.7,54.3,29.96,ESE,105,0.0,0.0,92,0.00,,,0.00,meteohub,2013-08-11 09:42:00,
2013-08-11 05:47:00,56.8,54.5,29.96,ESE,105,0.0,0.0,92,0.00,,,0.00,meteohub,2013-08-11 09:47:00,
2013-08-11 05:53:00,56.8,54.5,29.96,NE,54,0.0,0.0,92,0.00,,,0.00,meteohub,2013-08-11 09:53:00,
2013-08-11 05:59:00,56.8,54.9,29.96,NE,54,0.0,3.0,93,0.00,,,0.00,meteohub,2013-08-11 09:59:00,
2013-08-11 06:04:00,56.7,54.7,29.96,NE,54,0.0,3.0,93,0.00,,,0.00,meteohub,2013-08-11 10:04:00,
2013-08-11 06:18:00,56.3,54.3,29.96,NE,54,0.0,0.0,93,0.00,,,0.00,meteohub,2013-08-11 10:18:00,
2013-08-11 06:23:00,56.5,54.5,29.96,NE,54,0.0,0.0,93,0.00,,,0.00,meteohub,2013-08-11 10:23:00,
2013-08-11 06:29:00,56.8,55.2,29.96,NE,54,0.0,0.0,94,0.00,,,0.00,meteohub,2013-08-11 10:29:00,
2013-08-11 06:34:00,56.8,55.2,29.99,NE,54,0.0,0.0,94,0.00,,,0.00,meteohub,2013-08-11 10:34:00,
2013-08-11 06:44:00,57.0,55.2,29.99,NE,54,0.0,0.0,94,0.00,,,0.00,meteohub,2013-08-11 10:44:00,
2013-08-11 06:51:00,57.7,55.9,29.99,NE,54,0.0,0.0,94,0.00,,,0.00,meteohub,2013-08-11 10:51:00,
2013-08-11 06:57:00,57.9,56.1,29.99,NE,54,0.0,0.0,94,0.00,,,0.00,meteohub,2013-08-11 10:57:00,
2013-08-11 08:35:00,70.5,47.5,29.99,NNE,28,0.0,4.0,44,0.00,,,0.00,meteohub,2013-08-11 12:35:00,
2013-08-11 08:41:00,70.5,46.9,29.99,NW,325,5.0,6.0,43,0.00,,,0.00,meteohub,2013-08-11 12:41:00,
2013-08-11 08:46:00,70.7,46.4,29.99,North,357,0.0,6.0,42,0.00,,,0.00,meteohub,2013-08-11 12:46:00,
2013-08-11 08:51:00,70.5,46.9,29.99,ENE,62,3.0,6.0,43,0.00,,,0.00,meteohub,2013-08-11 12:51:00,
2013-08-11 09:03:00,71.2,46.9,29.99,East,100,3.0,5.0,42,0.00,,,0.00,meteohub,2013-08-11 13:03:00,
2013-08-11 09:08:00,72.0,46.4,29.99,North,0,4.0,5.0,40,0.00,,,0.00,meteohub,2013-08-11 13:08:00,
2013-08-11 10:06:00,73.0,43.0,29.99,NE,49,6.0,8.0,34,0.00,,,0.00,meteohub,2013-08-11 14:06:00,
2013-08-11 10:11:00,72.9,42.8,29.99,North,357,4.0,8.0,34,0.00,,,0.00,meteohub,2013-08-11 14:11:00,
2013-08-11 10:16:00,72.9,43.5,29.99,North,357,2.0,7.0,35,0.00,,,0.00,meteohub,2013-08-11 14:16:00,
2013-08-11 10:22:00,72.7,42.6,29.99,North,353,4.0,6.0,34,0.00,,,0.00,meteohub,2013-08-11 14:22:00,
2013-08-11 10:27:00,72.5,43.3,29.99,North,0,3.0,7.0,35,0.00,,,0.00,meteohub,2013-08-11 14:27:00,
2013-08-11 10:32:00,73.0,48.6,29.99,NNW,328,3.0,7.0,42,0.00,,,0.00,meteohub,2013-08-11 14:32:00,
2013-08-11 10:37:00,72.7,45.7,29.99,NNW,334,4.0,6.0,38,0.00,,,0.00,meteohub,2013-08-11 14:37:00,
2013-08-11 10:43:00,73.2,48.7,29.99,NNW,338,0.0,4.0,42,0.00,,,0.00,meteohub,2013-08-11 14:43:00,
2013-08-11 10:48:00,73.2,49.5,29.99,NNW,338,0.0,4.0,43,0.00,,,0.00,meteohub,2013-08-11 14:48:00,
2013-08-11 10:57:00,72.0,46.9,29.99,North,353,0.0,3.0,41,0.00,,,0.00,meteohub,2013-08-11 14:57:00,
2013-08-11 11:16:00,71.8,49.3,29.99,NNW,341,0.0,4.0,45,0.00,,,0.00,meteohub,2013-08-11 15:16:00,
2013-08-11 11:22:00,71.8,49.8,29.99,NNW,341,0.0,4.0,46,0.00,,,0.00,meteohub,2013-08-11 15:22:00,
2013-08-11 11:44:00,72.5,51.1,29.99,North,357,0.0,2.0,47,0.00,,,0.00,meteohub,2013-08-11 15:44:00,
2013-08-11 11:49:00,72.7,50.7,29.99,North,357,0.0,2.0,46,0.00,,,0.00,meteohub,2013-08-11 15:49:00,
2013-08-11 12:46:00,73.0,52.2,29.96,WNW,301,0.0,3.0,48,0.00,,,0.00,meteohub,2013-08-11 16:46:00,
2013-08-11 12:52:00,72.9,50.9,29.96,North,7,3.0,3.0,46,0.00,,,0.00,meteohub,2013-08-11 16:52:00,
2013-08-11 12:57:00,73.4,50.2,29.96,NE,41,0.0,4.0,44,0.00,,,0.00,meteohub,2013-08-11 16:57:00,
2013-08-11 13:02:00,74.1,52.0,29.96,West,270,0.0,4.0,46,0.00,,,0.00,meteohub,2013-08-11 17:02:00,
2013-08-11 13:08:00,74.5,48.6,29.96,ENE,62,0.0,5.0,40,0.00,,,0.00,meteohub,2013-08-11 17:08:00,
2013-08-11 13:13:00,74.5,49.3,29.96,ENE,69,0.0,5.0,41,0.00,,,0.00,meteohub,2013-08-11 17:13:00,
2013-08-11 13:32:00,75.9,51.3,29.96,SW,232,3.0,5.0,42,0.00,,,0.00,meteohub,2013-08-11 17:32:00,
2013-08-11 13:37:00,76.1,50.7,29.96,SE,137,0.0,5.0,41,0.00,,,0.00,meteohub,2013-08-11 17:37:00,
2013-08-11 15:48:00,77.5,52.7,29.93,ESE,118,0.0,4.0,42,0.00,,,0.00,meteohub,2013-08-11 19:48:00,
2013-08-11 15:53:00,77.5,52.7,29.93,WNW,299,0.0,4.0,42,0.00,,,0.00,meteohub,2013-08-11 19:53:00,
2013-08-11 17:02:00,74.3,58.1,29.90,SW,230,0.0,6.0,57,0.00,,,0.00,meteohub,2013-08-11 21:02:00,
2013-08-11 17:08:00,74.3,58.6,29.90,SW,230,0.0,5.0,58,0.00,,,0.00,meteohub,2013-08-11 21:08:00,
2013-08-11 17:13:00,73.6,56.8,29.90,SW,230,0.0,4.0,56,0.00,,,0.00,meteohub,2013-08-11 21:13:00,
2013-08-11 17:18:00,73.6,56.8,29.90,SW,230,0.0,0.0,56,0.00,,,0.00,meteohub,2013-08-11 21:18:00,
2013-08-11 17:23:00,74.1,56.8,29.90,SW,221,0.0,0.0,55,0.00,,,0.00,meteohub,2013-08-11 21:23:00,
2013-08-11 17:29:00,74.7,57.4,29.90,SW,220,0.0,0.0,55,0.00,,,0.00,meteohub,2013-08-11 21:29:00,
2013-08-11 17:45:00,75.2,57.4,29.90,SSE,161,0.0,3.0,54,0.00,,,0.00,meteohub,2013-08-11 21:45:00,
2013-08-11 17:50:00,75.2,57.4,29.90,ESE,111,3.0,4.0,54,0.00,,,0.00,meteohub,2013-08-11 21:50:00,
2013-08-11 17:55:00,75.2,56.8,29.90,South,173,0.0,4.0,53,0.00,,,0.00,meteohub,2013-08-11 21:55:00,
2013-08-11 18:02:00,74.8,57.6,29.90,NNW,348,3.0,4.0,55,0.00,,,0.00,meteohub,2013-08-11 22:02:00,
2013-08-11 18:08:00,74.8,57.6,29.90,NNW,348,0.0,3.0,55,0.00,,,0.00,meteohub,2013-08-11 22:08:00,
2013-08-11 18:28:00,73.0,58.3,29.90,SW,215,0.0,4.0,60,0.00,,,0.00,meteohub,2013-08-11 22:28:00,
2013-08-11 18:44:00,72.9,58.6,29.90,SW,215,0.0,3.0,61,0.00,,,0.00,meteohub,2013-08-11 22:44:00,
2013-08-11 18:53:00,72.7,58.8,29.90,SW,215,0.0,0.0,62,0.00,,,0.00,meteohub,2013-08-11 22:53:00,
2013-08-11 18:59:00,72.7,58.8,29.90,SW,215,0.0,0.0,62,0.00,,,0.00,meteohub,2013-08-11 22:59:00,
2013-08-11 19:04:00,72.3,58.6,29.90,SW,215,0.0,0.0,62,0.00,,,0.00,meteohub,2013-08-11 23:04:00,
2013-08-11 19:11:00,72.1,58.8,29.90,SW,215,0.0,0.0,63,0.00,,,0.00,meteohub,2013-08-11 23:11:00,
2013-08-11 19:16:00,72.0,58.6,29.90,SW,215,0.0,0.0,63,0.00,,,0.00,meteohub,2013-08-11 23:16:00,
2013-08-11 19:21:00,71.8,59.0,29.90,SW,215,0.0,0.0,64,0.00,,,0.00,meteohub,2013-08-11 23:21:00,
2013-08-11 19:27:00,71.6,58.8,29.90,SW,215,0.0,0.0,64,0.00,,,0.00,meteohub,2013-08-11 23:27:00,
2013-08-11 19:32:00,71.4,59.0,29.90,SW,215,0.0,0.0,65,0.00,,,0.00,meteohub,2013-08-11 23:32:00,
2013-08-11 19:37:00,71.2,59.4,29.90,SW,215,0.0,0.0,66,0.00,,,0.00,meteohub,2013-08-11 23:37:00,
2013-08-11 19:42:00,71.2,59.4,29.90,SW,215,0.0,0.0,66,0.00,,,0.00,meteohub,2013-08-11 23:42:00,
2013-08-11 19:47:00,71.1,59.2,29.90,SW,215,0.0,0.0,66,0.00,,,0.00,meteohub,2013-08-11 23:47:00,
2013-08-11 19:52:00,71.1,59.5,29.90,SW,215,0.0,0.0,67,0.00,,,0.00,meteohub,2013-08-11 23:52:00,
2013-08-11 20:39:00,69.4,62.2,29.90,SW,215,0.0,2.0,78,0.00,,,0.00,meteohub,2013-08-12 00:39:00,
2013-08-11 20:44:00,69.3,62.1,29.90,SW,215,0.0,2.0,78,0.00,,,0.00,meteohub,2013-08-12 00:44:00,
2013-08-11 20:49:00,69.1,62.6,29.90,SW,215,0.0,0.0,80,0.00,,,0.00,meteohub,2013-08-12 00:49:00,
2013-08-11 20:54:00,69.1,62.6,29.90,SW,215,0.0,0.0,80,0.00,,,0.00,meteohub,2013-08-12 00:54:00,
2013-08-11 21:01:00,69.1,62.6,29.90,SW,215,0.0,0.0,80,0.00,,,0.00,meteohub,2013-08-12 01:01:00,
2013-08-11 21:07:00,69.1,62.6,29.90,SW,215,0.0,0.0,80,0.00,,,0.00,meteohub,2013-08-12 01:07:00,
2013-08-11 21:12:00,69.1,63.0,29.90,SW,215,0.0,0.0,81,0.00,,,0.00,meteohub,2013-08-12 01:12:00,
2013-08-11 22:39:00,67.3,63.7,29.90,WNW,297,0.0,0.0,88,0.00,,,0.00,meteohub,2013-08-12 02:39:00,
2013-08-11 22:44:00,67.3,63.7,29.90,WNW,296,0.0,0.0,88,0.00,,,0.00,meteohub,2013-08-12 02:44:00,
2013-08-11 22:50:00,67.3,63.9,29.90,WNW,296,0.0,0.0,89,0.00,,,0.00,meteohub,2013-08-12 02:50:00,
2013-08-11 22:55:00,67.1,63.7,29.90,WNW,296,0.0,0.0,89,0.00,,,0.00,meteohub,2013-08-12 02:55:00,
2013-08-11 23:01:00,66.9,63.9,29.90,WNW,297,0.0,0.0,90,0.00,,,0.00,meteohub,2013-08-12 03:01:00,
2013-08-11 23:06:00,66.9,63.9,29.90,WNW,296,0.0,0.0,90,0.00,,,0.00,meteohub,2013-08-12 03:06:00,
2013-08-11 23:11:00,66.6,63.5,29.90,WNW,296,0.0,0.0,90,0.00,,,0.00,meteohub,2013-08-12 03:11:00,
2013-08-11 23:16:00,66.4,63.3,29.90,WNW,296,0.0,0.0,90,0.00,,,0.00,meteohub,2013-08-12 03:16:00,
2013-08-11 23:22:00,66.2,63.1,29.90,WNW,296,2.0,0.0,90,0.00,,,0.00,meteohub,2013-08-12 03:22:00,
2013-08-11 23:27:00,66.0,63.3,29.90,WNW,296,0.0,3.0,91,0.00,,,0.00,meteohub,2013-08-12 03:27:00,
2013-08-11 23:32:00,66.0,63.3,29.90,WNW,296,0.0,3.0,91,0.00,,,0.00,meteohub,2013-08-12 03:32:00,
2013-08-11 23:37:00,66.0,63.7,29.90,WNW,296,0.0,3.0,92,0.00,,,0.00,meteohub,2013-08-12 03:37:00,
2013-08-11 23:42:00,66.0,63.7,29.90,WNW,296,0.0,0.0,92,0.00,,,0.00,meteohub,2013-08-12 03:42:00,
2013-08-11 23:47:00,66.0,63.7,29.90,WNW,296,0.0,0.0,92,0.00,,,0.00,meteohub,2013-08-12 03:47:00,
2013-08-11 23:52:00,66.0,63.7,29.90,WNW,296,0.0,0.0,92,0.00,,,0.00,meteohub,2013-08-12 03:52:00,
2013-08-11 23:57:00,66.0,63.9,29.90,WNW,296,0.0,3.0,93,0.00,,,0.00,meteohub,2013-08-12 03:57:00,